createdAt,value
2022-10-23T00:02:12.083Z,100225.23
2022-10-23T00:04:39.082Z,100229.46
2022-10-23T00:07:05.967Z,100228.59
2022-10-23T00:09:32.804Z,100225.59
2022-10-23T00:11:59.780Z,100213.77
2022-10-23T00:14:26.761Z,100216.53
2022-10-23T00:16:53.677Z,100213.87
2022-10-23T00:19:20.762Z,100209.10
2022-10-23T00:21:47.726Z,100205.89
2022-10-23T00:24:14.792Z,100209.93
2022-10-23T00:26:42.190Z,100208.52
2022-10-23T00:29:09.972Z,100212.23
2022-10-23T00:31:37.994Z,100215.02
2022-10-23T00:34:07.604Z,100217.67
2022-10-23T00:36:35.170Z,100207.83
2022-10-23T00:39:02.457Z,100215.07
2022-10-23T00:41:31.763Z,100208.57
2022-10-23T00:44:04.020Z,100204.88
2022-10-23T00:46:31.994Z,100204.35
2022-10-23T00:48:59.727Z,100203.46
2022-10-23T00:51:31.107Z,100205.23
2022-10-23T00:54:06.575Z,100210.73
2022-10-23T00:56:43.385Z,100204.23
2022-10-23T00:59:11.401Z,100204.78
2022-10-23T01:01:38.401Z,100212.01
2022-10-23T01:04:06.836Z,100207.09
2022-10-23T01:06:44.162Z,100207.45
2022-10-23T01:09:11.016Z,100212.55
2022-10-23T01:11:52.845Z,100209.59
2022-10-23T01:14:57.973Z,100215.76
2022-10-23T01:17:49.077Z,100216.15
2022-10-23T01:20:35.192Z,100213.55
2022-10-23T01:23:16.546Z,100213.57
2022-10-23T01:25:59.300Z,100213.57
2022-10-23T01:28:35.850Z,100213.39
2022-10-23T01:31:08.705Z,100212.33
2022-10-23T01:33:42.561Z,100217.27
2022-10-23T01:36:15.458Z,100213.56
2022-10-23T01:38:52.398Z,100216.56
2022-10-23T01:41:28.118Z,100217.25
2022-10-23T01:43:57.914Z,100219.71
2022-10-23T01:46:25.711Z,100216.05
2022-10-23T01:48:54.617Z,100223.30
2022-10-23T01:51:26.677Z,100222.65
2022-10-23T01:53:59.147Z,100224.95
2022-10-23T01:56:30.864Z,100225.67
2022-10-23T01:59:02.741Z,100226.56
2022-10-23T02:01:32.578Z,100225.50
2022-10-23T02:04:03.262Z,100227.23
2022-10-23T02:06:30.182Z,100223.54
2022-10-23T02:08:57.288Z,100226.00
2022-10-23T02:11:24.346Z,100223.71
2022-10-23T02:14:15.834Z,100223.17
2022-10-23T02:16:54.535Z,100229.52
2022-10-23T02:19:46.209Z,100226.52
2022-10-23T02:22:22.202Z,100227.95
2022-10-23T02:24:53.777Z,100229.02
2022-10-23T02:27:31.487Z,100225.50
2022-10-23T02:30:05.079Z,100227.82
2022-10-23T02:32:34.062Z,100225.86
2022-10-23T02:35:01.726Z,100226.40
2022-10-23T02:37:28.650Z,100229.02
2022-10-23T02:39:55.916Z,100233.24
2022-10-23T02:42:38.923Z,100231.84
2022-10-23T02:45:11.453Z,100234.82
2022-10-23T02:47:41.686Z,100234.44
2022-10-23T02:50:20.487Z,100234.10
2022-10-23T02:53:03.046Z,100237.06
2022-10-23T02:55:48.441Z,100236.88
2022-10-23T02:58:21.171Z,100240.05
2022-10-23T03:01:10.990Z,100242.72
2022-10-23T03:03:42.157Z,100249.27
2022-10-23T03:06:09.628Z,100247.87
2022-10-23T03:08:45.301Z,100247.36
2022-10-23T03:11:12.248Z,100247.34
2022-10-23T03:13:39.108Z,100248.90
2022-10-23T03:16:06.231Z,100250.10
2022-10-23T03:18:33.097Z,100249.02
2022-10-23T03:20:59.998Z,100252.17
2022-10-23T03:23:27.061Z,100249.36
2022-10-23T03:25:55.587Z,100259.23
2022-10-23T03:28:22.996Z,100259.95
2022-10-23T03:30:49.945Z,100256.45
2022-10-23T03:33:16.764Z,100254.70
2022-10-23T03:35:43.942Z,100251.70
2022-10-23T03:38:10.920Z,100255.78
2022-10-23T03:40:37.757Z,100258.06
2022-10-23T03:43:04.601Z,100252.98
2022-10-23T03:45:32.129Z,100254.55
2022-10-23T03:47:59.030Z,100255.95
2022-10-23T03:50:25.868Z,100256.13
2022-10-23T03:52:52.813Z,100258.91
2022-10-23T03:55:19.732Z,100257.48
2022-10-23T03:57:46.582Z,100257.10
2022-10-23T04:00:13.653Z,100255.15
2022-10-23T04:02:40.833Z,100258.48
2022-10-23T04:05:08.053Z,100265.35
2022-10-23T04:07:35.027Z,100263.41
2022-10-23T04:10:01.987Z,100265.19
2022-10-23T04:12:29.062Z,100266.94
2022-10-23T04:14:55.865Z,100267.83
2022-10-23T04:17:22.865Z,100267.83
2022-10-23T04:19:49.755Z,100268.02
2022-10-23T04:22:16.586Z,100268.59
2022-10-23T04:24:46.193Z,100265.61
2022-10-23T04:27:13.642Z,100267.90
2022-10-23T04:29:40.582Z,100271.77
2022-10-23T04:32:07.791Z,100268.42
2022-10-23T04:34:34.835Z,100271.41
2022-10-23T04:37:01.700Z,100272.80
2022-10-23T04:39:28.640Z,100274.20
2022-10-23T04:41:55.496Z,100274.88
2022-10-23T04:44:22.347Z,100276.65
2022-10-23T04:46:49.606Z,100280.17
2022-10-23T04:49:16.469Z,100278.05
2022-10-23T04:51:43.406Z,100281.40
2022-10-23T04:54:10.328Z,100286.48
2022-10-23T04:56:37.297Z,100285.63
2022-10-23T05:01:36.391Z,100281.77
2022-10-23T05:04:03.810Z,100277.89
2022-10-23T05:06:30.619Z,100279.98
2022-10-23T05:08:57.712Z,100281.21
2022-10-23T05:11:24.694Z,100278.92
2022-10-23T05:13:51.583Z,100280.86
2022-10-23T05:16:42.567Z,100274.88
2022-10-23T05:19:12.278Z,100275.23
2022-10-23T05:21:40.029Z,100275.41
2022-10-23T05:24:07.122Z,100271.54
2022-10-23T05:26:33.960Z,100275.39
2022-10-23T05:29:00.800Z,100276.42
2022-10-23T05:31:28.188Z,100273.62
2022-10-23T05:33:56.318Z,100275.91
2022-10-23T05:36:24.478Z,100276.97
2022-10-23T05:38:51.781Z,100283.67
2022-10-23T05:41:18.913Z,100285.25
2022-10-23T05:43:45.940Z,100292.11
2022-10-23T05:46:12.793Z,100294.77
2022-10-23T05:48:39.958Z,100297.96
2022-10-23T05:51:09.070Z,100299.22
2022-10-23T05:53:38.754Z,100303.79
2022-10-23T05:56:09.212Z,100306.63
2022-10-23T05:58:36.323Z,100311.05
2022-10-23T06:01:08.693Z,100313.69
2022-10-23T06:03:37.221Z,100314.02
2022-10-23T06:06:05.455Z,100315.61
2022-10-23T06:08:33.319Z,100317.70
2022-10-23T06:11:14.144Z,100319.97
2022-10-23T06:13:45.833Z,100324.18
2022-10-23T06:16:14.663Z,100324.00
2022-10-23T06:18:42.331Z,100323.48
2022-10-23T06:21:09.719Z,100321.20
2022-10-23T06:23:38.450Z,100322.77
2022-10-23T06:26:07.523Z,100323.81
2022-10-23T06:28:34.777Z,100325.38
2022-10-23T06:31:13.190Z,100327.48
2022-10-23T06:33:40.882Z,100329.59
2022-10-23T06:36:09.943Z,100331.02
2022-10-23T06:38:39.751Z,100335.05
2022-10-23T06:41:12.074Z,100335.91
2022-10-23T06:43:39.017Z,100332.02
2022-10-23T06:46:06.717Z,100334.48
2022-10-23T06:48:33.693Z,100337.65
2022-10-23T06:51:08.949Z,100335.73
2022-10-23T06:53:36.454Z,100341.37
2022-10-23T06:56:05.416Z,100345.58
2022-10-23T06:58:34.621Z,100344.88
2022-10-23T07:01:03.503Z,100345.59
2022-10-23T07:03:31.131Z,100345.06
2022-10-23T07:06:02.270Z,100350.52
2022-10-23T07:08:29.583Z,100351.39
2022-10-23T07:10:56.752Z,100352.11
2022-10-23T07:13:24.500Z,100350.89
2022-10-23T07:15:51.472Z,100350.38
2022-10-23T07:18:19.055Z,100361.27
2022-10-23T07:20:50.601Z,100360.73
2022-10-23T07:23:17.808Z,100358.42
2022-10-23T07:25:44.734Z,100352.23
2022-10-23T07:28:11.762Z,100351.36
2022-10-23T07:30:40.283Z,100354.52
2022-10-23T07:33:10.821Z,100359.45
2022-10-23T07:35:40.988Z,100364.21
2022-10-23T07:38:07.942Z,100370.35
2022-10-23T07:40:34.983Z,100369.11
2022-10-23T07:43:01.882Z,100363.11
2022-10-23T07:45:28.773Z,100360.62
2022-10-23T07:47:58.504Z,100357.29
2022-10-23T07:50:25.498Z,100357.45
2022-10-23T07:52:52.386Z,100350.41
2022-10-23T07:55:25.497Z,100350.90
2022-10-23T07:57:52.687Z,100350.34
2022-10-23T08:00:19.699Z,100352.98
2022-10-23T08:02:46.728Z,100350.14
2022-10-23T08:05:13.610Z,100349.43
2022-10-23T08:07:40.600Z,100345.55
2022-10-23T08:10:08.049Z,100346.05
2022-10-23T08:12:37.460Z,100347.10
2022-10-23T08:15:04.814Z,100358.34
2022-10-23T08:17:31.961Z,100354.96
2022-10-23T08:19:59.157Z,100358.66
2022-10-23T08:22:26.058Z,100366.60
2022-10-23T08:24:53.080Z,100369.25
2022-10-23T08:27:19.980Z,100367.13
2022-10-23T08:29:46.898Z,100368.87
2022-10-23T08:32:13.905Z,100372.39
2022-10-23T08:34:41.422Z,100379.25
2022-10-23T08:37:09.346Z,100377.11
2022-10-23T08:39:36.342Z,100379.76
2022-10-23T08:42:03.511Z,100378.56
2022-10-23T08:44:45.413Z,100379.60
2022-10-23T08:47:22.829Z,100380.48
2022-10-23T08:49:59.931Z,100381.19
2022-10-23T08:52:29.939Z,100382.42
2022-10-23T08:55:23.441Z,100383.66
2022-10-23T08:58:00.956Z,100386.31
2022-10-23T09:00:28.497Z,100389.50
2022-10-23T09:02:55.977Z,100390.36
2022-10-23T09:05:48.591Z,100391.23
2022-10-23T09:08:41.258Z,100391.23
2022-10-23T09:11:23.892Z,100390.89
2022-10-23T09:14:27.347Z,100397.79
2022-10-23T09:17:25.122Z,100402.55
2022-10-23T09:20:25.452Z,100397.42
2022-10-23T09:23:07.322Z,100398.27
2022-10-23T09:25:39.149Z,100396.16
2022-10-23T09:28:07.050Z,100399.30
2022-10-23T09:30:38.177Z,100399.98
2022-10-23T09:33:27.632Z,100404.52
2022-10-23T09:36:06.120Z,100409.09
2022-10-23T09:38:46.705Z,100408.20
2022-10-23T09:41:22.491Z,100407.81
2022-10-23T09:44:08.451Z,100403.39
2022-10-23T09:46:44.018Z,100403.20
2022-10-23T09:49:24.544Z,100403.73
2022-10-23T09:52:17.209Z,100404.09
2022-10-23T09:54:49.964Z,100401.09
2022-10-23T09:57:37.667Z,100401.21
2022-10-23T10:00:17.166Z,100402.91
2022-10-23T10:02:56.396Z,100404.27
2022-10-23T10:05:31.206Z,100391.72
2022-10-23T10:08:04.775Z,100393.30
2022-10-23T10:10:52.823Z,100393.77
2022-10-23T10:13:34.021Z,100389.85
2022-10-23T10:16:14.763Z,100387.48
2022-10-23T10:19:02.904Z,100396.64
2022-10-23T10:21:35.995Z,100395.89
2022-10-23T10:24:12.127Z,100398.50
2022-10-23T10:27:09.988Z,100398.12
2022-10-23T10:29:50.815Z,100393.25
2022-10-23T10:32:35.825Z,100397.69
2022-10-23T10:35:18.952Z,100397.67
2022-10-23T10:38:14.353Z,100396.42
2022-10-23T10:40:51.350Z,100396.77
2022-10-23T10:43:44.868Z,100396.41
2022-10-23T10:46:25.828Z,100391.84
2022-10-23T10:49:19.660Z,100388.48
2022-10-23T10:51:57.001Z,100384.60
2022-10-23T10:54:39.045Z,100380.34
2022-10-23T10:57:26.891Z,100379.41
2022-10-23T10:59:56.903Z,100375.54
2022-10-23T11:02:45.731Z,100377.83
2022-10-23T11:05:33.189Z,100379.92
2022-10-23T11:08:57.681Z,100375.85
2022-10-23T11:11:43.052Z,100373.66
2022-10-23T11:14:22.185Z,100372.88
2022-10-23T11:16:59.217Z,100374.40
2022-10-23T11:19:33.640Z,100372.79
2022-10-23T11:22:15.549Z,100367.80
2022-10-23T11:25:05.348Z,100369.81
2022-10-23T11:27:48.340Z,100371.19
2022-10-23T11:30:21.118Z,100372.57
2022-10-23T11:33:15.548Z,100367.46
2022-10-23T11:35:53.538Z,100360.60
2022-10-23T11:38:38.611Z,100353.71
2022-10-23T11:41:27.120Z,100353.50
2022-10-23T11:44:05.847Z,100357.14
2022-10-23T11:46:36.080Z,100362.39
2022-10-23T11:49:05.575Z,100363.08
2022-10-23T11:51:35.332Z,100360.23
2022-10-23T11:54:21.834Z,100351.21
2022-10-23T11:57:10.576Z,100351.13
2022-10-23T11:59:46.926Z,100352.48
2022-10-23T12:02:41.363Z,100345.04
2022-10-23T12:05:29.522Z,100345.16
2022-10-23T12:07:59.877Z,100346.77
2022-10-23T12:10:31.447Z,100342.52
2022-10-23T12:13:00.938Z,100340.14
2022-10-23T12:15:34.342Z,100337.87
2022-10-23T12:18:15.843Z,100336.83
2022-10-23T12:20:57.008Z,100334.98
2022-10-23T12:23:36.576Z,100333.37
2022-10-23T12:26:09.929Z,100334.43
2022-10-23T12:28:45.771Z,100327.39
2022-10-23T12:31:50.829Z,100320.69
2022-10-23T12:34:47.818Z,100323.66
2022-10-23T12:37:26.098Z,100321.66
2022-10-23T12:39:55.324Z,100322.67
2022-10-23T12:42:25.148Z,100320.03
2022-10-23T12:45:02.752Z,100315.77
2022-10-23T12:47:30.525Z,100305.54
2022-10-23T12:49:57.634Z,100305.55
2022-10-23T12:52:26.679Z,100303.04
2022-10-23T12:54:53.740Z,100307.41
2022-10-23T12:57:27.681Z,100303.10
2022-10-23T13:00:05.723Z,100298.63
2022-10-23T13:02:40.885Z,100295.58
2022-10-23T13:05:16.350Z,100291.20
2022-10-23T13:07:46.421Z,100290.71
2022-10-23T13:10:26.205Z,100286.21
2022-10-23T13:12:58.006Z,100277.48
2022-10-23T13:15:26.230Z,100279.12
2022-10-23T13:17:53.059Z,100276.65
2022-10-23T13:20:27.751Z,100276.48
2022-10-23T13:23:30.616Z,100269.42
2022-10-23T13:25:59.131Z,100263.96
2022-10-23T13:28:27.999Z,100261.50
2022-10-23T13:31:05.782Z,100262.20
2022-10-23T13:33:41.652Z,100265.89
2022-10-23T13:36:14.735Z,100270.98
2022-10-23T13:39:02.156Z,100272.94
2022-10-23T13:41:36.424Z,100278.92
2022-10-23T13:44:04.060Z,100277.02
2022-10-23T13:46:31.269Z,100277.56
2022-10-23T13:48:58.304Z,100286.21
2022-10-23T13:51:28.424Z,100286.59
2022-10-23T13:53:57.134Z,100278.84
2022-10-23T13:56:26.204Z,100273.55
2022-10-23T13:58:53.712Z,100277.79
2022-10-23T14:01:25.885Z,100277.95
2022-10-23T14:04:15.861Z,100276.89
2022-10-23T14:06:43.727Z,100274.23
2022-10-23T14:09:16.361Z,100274.38
2022-10-23T14:11:44.491Z,100275.06
2022-10-23T14:14:13.208Z,100270.30
2022-10-23T14:16:44.042Z,100265.70
2022-10-23T14:19:12.311Z,100259.54
2022-10-23T14:21:39.350Z,100248.08
2022-10-23T14:24:06.519Z,100245.95
2022-10-23T14:26:34.137Z,100246.64
2022-10-23T14:29:08.485Z,100250.14
2022-10-23T14:31:38.549Z,100247.50
2022-10-23T14:34:05.499Z,100243.12
2022-10-23T14:36:49.454Z,100244.02
2022-10-23T14:39:17.482Z,100244.89
2022-10-23T14:41:45.343Z,100243.65
2022-10-23T14:44:12.585Z,100248.91
2022-10-23T14:46:39.622Z,100251.73
2022-10-23T14:49:06.838Z,100249.81
2022-10-23T14:51:34.074Z,100251.44
2022-10-23T14:54:06.615Z,100250.58
2022-10-23T14:56:39.488Z,100248.30
2022-10-23T14:59:10.625Z,100246.90
2022-10-23T15:01:43.745Z,100245.86
2022-10-23T15:04:15.186Z,100250.31
2022-10-23T15:06:43.378Z,100246.15
2022-10-23T15:09:10.827Z,100245.71
2022-10-23T15:11:38.031Z,100239.79
2022-10-23T15:14:05.665Z,100239.48
2022-10-23T15:16:33.207Z,100236.33
2022-10-23T15:19:00.653Z,100233.55
2022-10-23T15:21:40.929Z,100232.94
2022-10-23T15:24:08.032Z,100229.98
2022-10-23T15:26:37.763Z,100232.36
2022-10-23T15:29:06.423Z,100229.25
2022-10-23T15:32:08.717Z,100225.81
2022-10-23T15:34:37.262Z,100222.17
2022-10-23T15:37:04.800Z,100218.17
2022-10-23T15:39:34.514Z,100218.74
2022-10-23T15:42:53.086Z,100219.88
2022-10-23T15:45:37.459Z,100218.96
2022-10-23T15:48:04.963Z,100220.98
2022-10-23T15:50:35.256Z,100222.08
2022-10-23T15:56:30.644Z,100215.87
2022-10-23T15:59:17.996Z,100219.81
2022-10-23T16:02:53.292Z,100219.53
2022-10-23T16:05:20.538Z,100221.04
2022-10-23T16:07:50.059Z,100223.73
2022-10-23T16:10:17.836Z,100224.64
2022-10-23T16:12:46.748Z,100217.48
2022-10-23T16:15:13.956Z,100217.89
2022-10-23T16:21:01.579Z,100218.81
2022-10-23T16:23:28.890Z,100215.64
2022-10-23T16:26:01.918Z,100212.84
2022-10-23T16:28:38.208Z,100211.25
2022-10-23T16:31:36.847Z,100202.09
2022-10-23T16:34:07.840Z,100199.33
2022-10-23T16:41:11.063Z,100194.33
2022-10-23T16:43:39.424Z,100195.58
2022-10-23T16:46:10.302Z,100197.52
2022-10-23T16:48:41.553Z,100201.22
2022-10-23T16:51:15.046Z,100196.52
2022-10-23T16:53:43.063Z,100199.21
2022-10-23T16:56:15.705Z,100205.41
2022-10-23T16:58:43.432Z,100197.75
2022-10-23T17:01:14.200Z,100205.97
2022-10-23T17:03:44.165Z,100206.15
2022-10-23T17:06:18.901Z,100204.75
2022-10-23T17:08:58.002Z,100212.54
2022-10-23T17:11:31.811Z,100210.13
2022-10-23T17:14:03.068Z,100217.56
2022-10-23T17:16:38.109Z,100219.15
2022-10-23T17:19:44.958Z,100222.67
2022-10-23T17:22:25.032Z,100212.84
2022-10-23T17:24:54.830Z,100211.42
2022-10-23T17:27:21.799Z,100212.30
2022-10-23T17:29:48.794Z,100207.02
2022-10-23T17:32:18.407Z,100202.80
2022-10-23T17:34:48.134Z,100194.19
2022-10-23T17:37:16.682Z,100192.09
2022-10-23T17:39:52.330Z,100191.25
2022-10-23T17:42:19.870Z,100190.35
2022-10-23T17:44:47.240Z,100185.59
2022-10-23T17:47:14.127Z,100190.17
2022-10-23T17:49:42.879Z,100186.48
2022-10-23T17:52:14.488Z,100183.85
2022-10-23T17:54:41.776Z,100181.93
2022-10-23T17:57:08.973Z,100175.41
2022-10-23T17:59:37.078Z,100173.29
2022-10-23T18:02:04.846Z,100171.70
2022-10-23T18:04:36.007Z,100168.38
2022-10-23T18:07:03.204Z,100167.68
2022-10-23T18:09:33.669Z,100160.84
2022-10-23T18:12:02.124Z,100159.75
2022-10-23T18:14:29.716Z,100161.48
2022-10-23T18:17:00.060Z,100160.41
2022-10-23T18:20:04.196Z,100149.84
2022-10-23T18:22:41.249Z,100149.34
2022-10-23T18:25:19.152Z,100146.39
2022-10-23T18:27:53.154Z,100148.71
2022-10-23T18:30:20.221Z,100150.85
2022-10-23T18:32:47.961Z,100152.95
2022-10-23T18:35:16.011Z,100147.13
2022-10-23T18:37:43.070Z,100144.13
2022-10-23T18:40:12.244Z,100146.63
2022-10-23T18:42:39.268Z,100142.77
2022-10-23T18:45:06.857Z,100143.14
2022-10-23T18:47:36.689Z,100141.39
2022-10-23T18:50:08.347Z,100135.94
2022-10-23T18:52:41.801Z,100130.83
2022-10-23T18:55:12.603Z,100131.70
2022-10-23T18:57:40.801Z,100124.29
2022-10-23T19:00:10.491Z,100119.04
2022-10-23T19:02:38.606Z,100115.89
2022-10-23T19:05:13.591Z,100116.42
2022-10-23T19:07:48.451Z,100115.36
2022-10-23T19:10:46.025Z,100112.40
2022-10-23T19:13:22.505Z,100114.27
2022-10-23T19:15:49.623Z,100107.25
2022-10-23T19:18:16.974Z,100105.51
2022-10-23T19:20:44.232Z,100103.58
2022-10-23T19:23:15.294Z,100095.31
2022-10-23T19:25:45.044Z,100090.02
2022-10-23T19:31:57.736Z,100084.02
2022-10-23T19:34:25.094Z,100087.73
2022-10-23T19:37:01.554Z,100085.47
2022-10-23T19:39:29.155Z,100066.50
2022-10-23T19:41:57.161Z,100064.73
2022-10-23T19:44:24.738Z,100056.64
2022-10-23T19:46:51.975Z,100057.17
2022-10-23T19:49:19.380Z,100049.59
2022-10-23T19:52:10.751Z,100053.65
2022-10-23T19:54:40.776Z,100058.27
2022-10-23T19:57:35.302Z,100058.86
2022-10-23T20:01:03.144Z,100053.45
2022-10-23T20:06:35.179Z,100055.77
2022-10-23T20:09:07.479Z,100051.15
2022-10-23T20:11:36.656Z,100055.73
2022-10-23T20:14:03.921Z,100062.08
2022-10-23T20:16:33.412Z,100064.23
2022-10-23T20:19:10.102Z,100069.89
2022-10-23T20:21:46.378Z,100071.48
2022-10-23T20:24:24.555Z,100078.69
2022-10-23T20:26:54.269Z,100071.27
2022-10-23T20:29:22.656Z,100058.26
2022-10-23T20:31:50.174Z,100048.95
2022-10-23T20:34:18.635Z,100051.63
2022-10-23T20:36:49.451Z,100058.66
2022-10-23T20:39:35.247Z,100058.30
2022-10-23T20:42:07.411Z,100057.23
2022-10-23T20:44:53.883Z,100053.14
2022-10-23T20:47:25.426Z,100052.64
2022-10-23T20:50:09.095Z,100049.83
2022-10-23T20:52:36.455Z,100045.46
2022-10-23T20:55:04.276Z,100046.01
2022-10-23T20:57:34.508Z,100044.06
2022-10-23T21:00:02.648Z,100034.89
2022-10-23T21:02:34.899Z,100032.41
2022-10-23T21:05:38.255Z,100032.42
2022-10-23T21:08:06.033Z,100034.55
2022-10-23T21:10:38.300Z,100028.73
2022-10-23T21:13:07.708Z,100031.70
2022-10-23T21:15:34.971Z,100029.42
2022-10-23T21:18:27.534Z,100025.18
2022-10-23T21:21:38.079Z,100026.73
2022-10-23T21:24:16.277Z,100016.88
2022-10-23T21:26:46.968Z,100008.48
2022-10-23T21:29:21.281Z,100011.31
2022-10-23T21:32:00.991Z,100012.56
2022-10-23T21:34:29.330Z,100007.30
2022-10-23T21:37:13.591Z,100006.76
2022-10-23T21:39:42.757Z,100003.26
2022-10-23T21:42:11.529Z,100004.14
2022-10-23T21:44:38.457Z,100000.30
2022-10-23T21:47:05.378Z,99998.20
2022-10-23T21:49:32.324Z,100000.48
2022-10-23T21:52:00.201Z,100001.69
2022-10-23T21:54:27.151Z,99999.73
2022-10-23T21:56:54.317Z,99995.48
2022-10-23T21:59:23.953Z,99995.68
2022-10-23T22:01:56.813Z,99993.27
2022-10-23T22:04:27.057Z,99988.74
2022-10-23T22:06:54.010Z,99984.55
2022-10-23T22:09:22.275Z,99982.98
2022-10-23T22:11:50.647Z,99976.85
2022-10-23T22:14:18.521Z,99974.38
2022-10-23T22:16:45.867Z,99971.42
2022-10-23T22:19:15.073Z,99969.35
2022-10-23T22:21:42.624Z,99967.63
2022-10-23T22:24:10.332Z,99964.63
2022-10-23T22:26:43.353Z,99965.52
2022-10-23T22:29:13.121Z,99970.40
2022-10-23T22:31:43.071Z,99959.46
2022-10-23T22:34:25.338Z,99955.05
2022-10-23T22:37:01.030Z,99957.57
2022-10-23T22:39:28.012Z,99957.77
2022-10-23T22:41:54.984Z,99952.85
2022-10-23T22:44:21.843Z,99948.66
2022-10-23T22:46:48.804Z,99946.91
2022-10-23T22:49:16.012Z,99946.02
2022-10-23T22:51:42.853Z,99946.20
2022-10-23T22:54:09.763Z,99946.04
2022-10-23T22:56:36.849Z,99945.52
2022-10-23T22:59:04.548Z,99940.63
2022-10-23T23:01:38.074Z,99943.08
2022-10-23T23:04:13.965Z,99942.52
2022-10-23T23:06:52.302Z,99939.38
2022-10-23T23:09:20.029Z,99940.27
2022-10-23T23:11:52.074Z,99933.98
2022-10-23T23:14:23.382Z,99928.55
2022-10-23T23:16:52.608Z,99927.14
2022-10-23T23:19:21.957Z,99924.88
2022-10-23T23:21:49.043Z,99918.89
2022-10-23T23:24:15.909Z,99910.61
2022-10-23T23:26:42.794Z,99909.89
2022-10-23T23:29:09.777Z,99900.77
2022-10-23T23:31:36.679Z,99903.09
2022-10-23T23:34:03.889Z,99902.77
2022-10-23T23:36:30.826Z,99902.42
2022-10-23T23:38:58.308Z,99897.51
2022-10-23T23:41:27.064Z,99890.66
2022-10-23T23:43:56.462Z,99891.36
2022-10-23T23:46:24.198Z,99885.94
2022-10-23T23:48:51.132Z,99879.47
2022-10-23T23:51:21.653Z,99875.44
2022-10-23T23:53:49.175Z,99879.64
2022-10-23T23:56:16.776Z,99878.04
2022-10-23T23:58:44.273Z,99869.44
